Aviosuperficie "San Mauro"

IT-0372 · Friuli Venezia Giulia, 意大利

2022年12月6日 16:002022年12月7日 01:00有效
时间
星期二
16:00
星期二
17:00
星期二
18:00
星期二
19:00
星期二
20:00
星期二
21:00
星期二
22:00
星期二
23:00
星期三
00:00
代码
VFR
VFR
VFR
VFR
VFR
VFR
VFR
VFR
VFR
天气
天空晴朗
天空晴朗
天空晴朗
天空晴朗
天空晴朗
天空晴朗
天空晴朗
天空晴朗
天空晴朗
能见度
10 km+
10 km+
10 km+
10 km+
10 km+
10 km+
10 km+
10 km+
10 km+
天花板
-
-
-
-
-
-
-
-
-
Var
Var
Var
Var
Var
Var
Var
Var
Var
Var
Var
Var
Var
Var
Var
Var
Var
Var
速度
5 kt
5 kt
5 kt
5 kt
5 kt
5 kt
5 kt
5 kt
5 kt
阵风
温度/星期日
16:23

原版的

TAF LIPI 061400Z 0615/0624 VRB05KT 9999 FEW030

TAF Aviosuperficie "San Mauro"

Aviosuperficie "San Mauro"是,意大利中的小机场。 该机场有2条跑道: 9/27 和 10/28. 该领域的国际民航组织标志是IT-0372.

这份报告是针对2022年12月6日 15:00, 当地时间在Rivolto Air Base进行的。 从2022年12月6日 16:00到2022年12月7日 01:00, 当地时间有效.

预报

  • 在星期二 16:00和星期三 01:00之间

    • 风: 可变方向的风很小或没有。
    • 能见度: 10 km 或者更多
    • 乌云: 几云在3.000 ft的高度.

白天

今天,太阳从07:33升起,在16:21降落。 这适用于Aviosuperficie "San Mauro",世界夏令时可能有所不同。 当地时间与世界标准时间之间的时差为+1 小时。 当前,没有夏令时有效。

我们和第三方通过cookies跟踪您在我们网站上的互联网行为。如果你继续,我们认为你同意我们的饼干政策